Time;durP1;ratioP1;P1;durP2;ratioP2;P2;SDS_P1;SDS_P2;PMS_P1;PMS_P2;Temp;Humidity;BMP_temperature;BMP_pressure;BME280_temperature;BME280_humidity;BME280_pressure;Samples;Min_cycle;Max_cycle;Signal;HPM_P1;HPM_P2
2022/01/14 00:01:49;;;;;;;10.32;3.08;;;;;;;;;;5092613;28;20463;-70
2022/01/14 00:04:53;;;;;;;15.90;3.58;;;;;;;;;;5092511;28;20036;-70
2022/01/14 00:07:58;;;;;;;14.90;4.75;;;;;;;;;;5093042;28;20044;-70
2022/01/14 00:11:03;;;;;;;7.60;2.40;;;;;;;;;;5092606;28;20043;-70
2022/01/14 00:14:20;;;;;;;8.02;3.17;;;;;;;;;;5079167;28;20052;-70
2022/01/14 00:17:25;;;;;;;9.20;2.60;;;;;;;;;;5092272;28;20024;-70
2022/01/14 00:20:29;;;;;;;4.38;2.22;;;;;;;;;;5091732;28;20044;-70
2022/01/14 00:23:37;;;;;;;9.40;2.00;;;;;;;;;;5092128;28;20040;-70
2022/01/14 00:33:28;;;;;;;6.72;2.30;;;;;;;;;;5079201;28;20055;-70
2022/01/14 00:36:33;;;;;;;8.88;2.30;;;;;;;;;;5091989;28;20036;-70
2022/01/14 00:39:37;;;;;;;10.25;2.95;;;;;;;;;;5091558;28;20052;-70
2022/01/14 00:42:41;;;;;;;11.15;2.90;;;;;;;;;;5091677;28;20040;-70
2022/01/14 00:45:46;;;;;;;9.13;3.20;;;;;;;;;;5091778;28;20043;-70
2022/01/14 00:48:50;;;;;;;13.93;2.83;;;;;;;;;;5091701;28;20040;-70
2022/01/14 00:51:54;;;;;;;7.45;2.50;;;;;;;;;;5091325;28;20040;-70
2022/01/14 00:54:58;;;;;;;9.02;2.50;;;;;;;;;;5067602;28;20044;-70
2022/01/14 01:01:07;;;;;;;7.35;2.20;;;;;;;;;;5091569;28;20036;-70
2022/01/14 01:04:12;;;;;;;8.45;2.42;;;;;;;;;;5091553;28;20036;-70
2022/01/14 01:07:18;;;;;;;5.75;2.33;;;;;;;;;;5091404;28;20032;-70
2022/01/14 01:10:23;;;;;;;6.95;1.73;;;;;;;;;;5078973;28;20036;-70
2022/01/14 01:13:33;;;;;;;7.80;1.85;;;;;;;;;;5091010;28;20495;-70
2022/01/14 01:16:37;;;;;;;5.53;2.55;;;;;;;;;;5091334;28;20036;-70
2022/01/14 01:19:42;;;;;;;5.22;2.10;;;;;;;;;;5091332;28;20544;-70
2022/01/14 01:22:49;;;;;;;8.70;3.30;;;;;;;;;;5078885;28;20024;-70
2022/01/14 01:26:17;;;;;;;6.03;2.42;;;;;;;;;;5067025;28;20048;-70
2022/01/14 01:32:32;;;;;;;2.65;1.30;;;;;;;;;;5092309;28;20036;-70
2022/01/14 01:35:36;;;;;;;6.32;1.33;;;;;;;;;;5082954;28;20036;-70
2022/01/14 01:38:41;;;;;;;3.92;1.33;;;;;;;;;;5094873;28;20040;-69
2022/01/14 01:41:47;;;;;;;3.35;1.10;;;;;;;;;;5095051;28;20036;-69
2022/01/14 01:44:51;;;;;;;3.85;1.33;;;;;;;;;;5094995;28;20040;-70
2022/01/14 01:47:55;;;;;;;3.63;1.50;;;;;;;;;;5082643;28;20044;-70
2022/01/14 01:50:59;;;;;;;2.38;1.27;;;;;;;;;;5095254;28;20040;-70
2022/01/14 01:54:04;;;;;;;4.43;1.23;;;;;;;;;;5094571;28;20040;-70
2022/01/14 01:57:08;;;;;;;4.13;1.27;;;;;;;;;;5094896;28;20036;-70
2022/01/14 02:00:14;;;;;;;4.25;1.35;;;;;;;;;;5094905;28;20047;-70
2022/01/14 02:03:21;;;;;;;3.45;1.00;;;;;;;;;;5094896;28;20369;-70
2022/01/14 02:06:25;;;;;;;2.40;1.17;;;;;;;;;;5094889;28;20048;-70
2022/01/14 02:09:30;;;;;;;4.60;1.42;;;;;;;;;;5094913;28;20499;-70
2022/01/14 02:12:39;;;;;;;3.83;1.40;;;;;;;;;;5094616;28;20052;-70
2022/01/14 02:16:17;;;;;;;5.32;1.48;;;;;;;;;;5094718;28;20039;-70
2022/01/14 02:19:28;;;;;;;2.92;1.27;;;;;;;;;;5094463;28;20048;-70
2022/01/14 02:22:36;;;;;;;2.42;1.30;;;;;;;;;;5094340;28;20040;-70
2022/01/14 02:25:40;;;;;;;6.40;1.48;;;;;;;;;;5094263;28;20036;-70
2022/01/14 02:28:45;;;;;;;5.05;1.15;;;;;;;;;;5094471;28;20040;-70
2022/01/14 02:31:50;;;;;;;2.55;1.02;;;;;;;;;;5094239;28;20071;-70
2022/01/14 02:34:55;;;;;;;5.00;1.45;;;;;;;;;;5081775;28;20052;-70
2022/01/14 02:37:59;;;;;;;3.70;1.50;;;;;;;;;;5093977;28;20039;-70
2022/01/14 02:41:04;;;;;;;5.88;1.52;;;;;;;;;;5094013;28;20035;-70
2022/01/14 02:44:09;;;;;;;4.65;2.70;;;;;;;;;;5081145;28;20044;-70
2022/01/14 02:47:17;;;;;;;5.10;2.40;;;;;;;;;;5081379;28;20028;-70
2022/01/14 02:50:23;;;;;;;7.35;2.58;;;;;;;;;;5094022;28;20032;-70
2022/01/14 02:56:43;;;;;;;5.25;2.72;;;;;;;;;;5093891;28;20035;-70
2022/01/14 02:59:48;;;;;;;4.82;2.40;;;;;;;;;;5093655;28;20039;-70
2022/01/14 03:02:52;;;;;;;6.13;2.78;;;;;;;;;;5093715;28;20036;-70
2022/01/14 03:05:57;;;;;;;6.35;2.97;;;;;;;;;;5093572;28;20028;-70
2022/01/14 03:09:01;;;;;;;4.45;2.03;;;;;;;;;;5093712;28;20036;-70
2022/01/14 03:12:06;;;;;;;6.90;2.50;;;;;;;;;;5093634;28;20044;-70
2022/01/14 03:15:11;;;;;;;9.27;2.72;;;;;;;;;;5093563;28;20479;-70
2022/01/14 03:18:29;;;;;;;6.22;2.78;;;;;;;;;;5093242;28;20036;-70
2022/01/14 03:21:39;;;;;;;5.88;2.22;;;;;;;;;;5093149;28;20032;-70
2022/01/14 03:27:48;;;;;;;6.00;2.88;;;;;;;;;;5092914;28;20032;-70
2022/01/14 03:30:53;;;;;;;11.10;2.88;;;;;;;;;;5080392;28;20044;-70
2022/01/14 03:33:57;;;;;;;4.60;1.98;;;;;;;;;;5092876;28;20051;-70
2022/01/14 03:37:01;;;;;;;5.72;2.20;;;;;;;;;;5093041;28;20032;-70
2022/01/14 03:40:07;;;;;;;4.22;1.77;;;;;;;;;;5093069;28;20048;-70
2022/01/14 03:43:11;;;;;;;5.40;2.00;;;;;;;;;;5092587;28;20044;-70
2022/01/14 03:46:15;;;;;;;7.22;2.63;;;;;;;;;;5092964;28;20610;-70
2022/01/14 03:49:20;;;;;;;5.32;2.40;;;;;;;;;;5093011;28;20044;-70
2022/01/14 03:52:24;;;;;;;6.63;2.80;;;;;;;;;;5092452;28;20032;-70
2022/01/14 03:55:29;;;;;;;7.10;2.40;;;;;;;;;;5092023;28;20036;-70
2022/01/14 03:58:33;;;;;;;6.38;2.80;;;;;;;;;;5092763;28;20028;-70
2022/01/14 04:01:37;;;;;;;7.72;2.40;;;;;;;;;;5092545;28;20032;-70
2022/01/14 04:04:42;;;;;;;5.70;2.60;;;;;;;;;;5092646;28;20032;-70
2022/01/14 04:07:46;;;;;;;3.95;2.20;;;;;;;;;;5092572;28;20043;-70
2022/01/14 04:10:53;;;;;;;8.13;3.25;;;;;;;;;;5092243;28;20036;-70
2022/01/14 04:14:07;;;;;;;5.68;3.03;;;;;;;;;;5092181;28;20048;-70
2022/01/14 04:17:12;;;;;;;9.98;3.20;;;;;;;;;;5092004;28;20024;-70
2022/01/14 04:20:15;;;;;;;6.70;2.88;;;;;;;;;;5092293;28;20036;-70
2022/01/14 04:23:22;;;;;;;6.43;2.88;;;;;;;;;;5092170;28;20063;-70
2022/01/14 04:26:27;;;;;;;7.57;3.10;;;;;;;;;;5092171;28;20040;-70
2022/01/14 04:29:32;;;;;;;6.78;3.10;;;;;;;;;;5092124;28;20040;-70
2022/01/14 04:32:37;;;;;;;7.57;2.85;;;;;;;;;;5091916;28;20361;-70
2022/01/14 04:35:42;;;;;;;8.25;2.97;;;;;;;;;;5091945;28;20040;-70
2022/01/14 04:38:46;;;;;;;6.95;2.92;;;;;;;;;;5091722;28;20048;-70
2022/01/14 04:41:50;;;;;;;8.90;3.40;;;;;;;;;;5079232;28;20052;-70
2022/01/14 04:44:55;;;;;;;6.90;3.03;;;;;;;;;;5067913;28;20503;-70
2022/01/14 04:48:01;;;;;;;11.48;3.70;;;;;;;;;;5079255;28;20058;-70
2022/01/14 04:51:09;;;;;;;12.23;3.85;;;;;;;;;;5091681;28;20040;-70
2022/01/14 04:54:14;;;;;;;9.00;3.72;;;;;;;;;;5091437;28;20054;-70
2022/01/14 04:57:21;;;;;;;10.90;4.28;;;;;;;;;;5078868;28;20039;-70
2022/01/14 05:00:28;;;;;;;16.80;4.20;;;;;;;;;;5091513;28;20101;-70
2022/01/14 05:03:32;;;;;;;8.65;4.43;;;;;;;;;;5091583;28;20044;-70
2022/01/14 05:06:38;;;;;;;9.80;3.78;;;;;;;;;;5091483;28;20036;-70
2022/01/14 05:09:46;;;;;;;11.98;3.95;;;;;;;;;;5091501;28;20369;-69
2022/01/14 05:12:50;;;;;;;10.75;4.40;;;;;;;;;;5091283;28;20035;-70
2022/01/14 05:15:55;;;;;;;8.98;3.30;;;;;;;;;;5079020;28;20391;-70
2022/01/14 05:19:00;;;;;;;8.85;4.00;;;;;;;;;;5091391;28;20040;-70
2022/01/14 05:22:04;;;;;;;8.48;3.97;;;;;;;;;;5091314;28;20492;-70
2022/01/14 05:25:09;;;;;;;10.95;4.03;;;;;;;;;;5079000;28;20032;-70
2022/01/14 05:28:13;;;;;;;9.00;4.15;;;;;;;;;;5091330;28;20040;-70
2022/01/14 05:31:18;;;;;;;10.05;4.10;;;;;;;;;;5090923;28;20032;-70
2022/01/14 05:34:22;;;;;;;14.18;4.70;;;;;;;;;;5090903;28;20044;-70
2022/01/14 05:37:27;;;;;;;21.90;5.43;;;;;;;;;;5078379;28;20036;-69
2022/01/14 05:40:31;;;;;;;15.07;4.32;;;;;;;;;;5078709;28;20040;-70
2022/01/14 05:43:35;;;;;;;10.57;3.92;;;;;;;;;;5067192;28;20419;-70
2022/01/14 05:46:39;;;;;;;13.10;5.00;;;;;;;;;;5090981;28;20044;-70
2022/01/14 05:49:45;;;;;;;19.05;6.68;;;;;;;;;;5091060;28;20036;-70
2022/01/14 05:52:49;;;;;;;15.55;6.20;;;;;;;;;;5090792;28;20039;-70
2022/01/14 05:55:53;;;;;;;16.73;5.70;;;;;;;;;;5090958;28;20040;-70
2022/01/14 05:58:58;;;;;;;25.13;6.75;;;;;;;;;;5090658;28;20044;-70
2022/01/14 06:02:02;;;;;;;14.60;6.38;;;;;;;;;;5090624;28;20032;-70
2022/01/14 06:05:07;;;;;;;13.18;6.47;;;;;;;;;;5090919;28;20369;-70
2022/01/14 06:08:11;;;;;;;19.67;8.25;;;;;;;;;;5090712;28;20039;-70
2022/01/14 06:11:15;;;;;;;18.30;7.30;;;;;;;;;;5090766;28;20066;-70
2022/01/14 06:14:19;;;;;;;21.98;6.70;;;;;;;;;;5078112;28;20052;-70
2022/01/14 06:17:23;;;;;;;16.75;7.47;;;;;;;;;;5078428;28;20058;-70
2022/01/14 06:20:28;;;;;;;45.08;11.48;;;;;;;;;;5082126;28;20032;-70
2022/01/14 06:23:32;;;;;;;35.42;10.05;;;;;;;;;;5081472;28;20039;-70
2022/01/14 06:26:37;;;;;;;20.80;8.57;;;;;;;;;;5094212;28;20043;-70
2022/01/14 06:29:41;;;;;;;17.75;6.55;;;;;;;;;;5094449;28;20387;-70
2022/01/14 06:32:45;;;;;;;21.13;7.53;;;;;;;;;;5081636;28;20535;-71
2022/01/14 06:35:50;;;;;;;15.52;7.05;;;;;;;;;;5081755;28;20048;-71
2022/01/14 06:38:54;;;;;;;19.63;7.50;;;;;;;;;;5072631;28;20514;-71
2022/01/14 06:41:58;;;;;;;24.63;10.30;;;;;;;;;;5073861;28;20041;-71
2022/01/14 06:45:03;;;;;;;23.85;10.15;;;;;;;;;;5073690;28;20491;-71
2022/01/14 06:48:08;;;;;;;27.15;8.88;;;;;;;;;;5073610;28;20051;-71
2022/01/14 06:51:15;;;;;;;27.50;8.48;;;;;;;;;;5073572;28;20036;-73
2022/01/14 06:54:19;;;;;;;21.70;7.43;;;;;;;;;;5073403;28;20044;-73
2022/01/14 06:57:24;;;;;;;23.00;7.50;;;;;;;;;;5072949;28;20041;-73
2022/01/14 07:00:28;;;;;;;25.98;7.68;;;;;;;;;;5073441;28;20503;-72
2022/01/14 07:03:32;;;;;;;20.80;6.45;;;;;;;;;;5073777;28;20144;-72
2022/01/14 07:06:37;;;;;;;19.40;6.47;;;;;;;;;;5073017;28;20396;-72
2022/01/14 07:09:56;;;;;;;18.08;8.48;;;;;;;;;;5073348;28;20044;-73
2022/01/14 07:13:00;;;;;;;23.67;8.70;;;;;;;;;;5073052;28;20039;-73
2022/01/14 07:16:05;;;;;;;27.00;10.70;;;;;;;;;;5073138;28;20419;-72
2022/01/14 07:19:09;;;;;;;26.30;10.23;;;;;;;;;;5073090;28;20052;-74
2022/01/14 07:22:14;;;;;;;21.85;9.88;;;;;;;;;;5072092;28;20047;-72
2022/01/14 07:25:19;;;;;;;24.98;12.07;;;;;;;;;;5072742;28;20040;-72
2022/01/14 07:28:23;;;;;;;25.92;12.25;;;;;;;;;;5083922;28;20047;-73
2022/01/14 07:31:27;;;;;;;24.92;10.98;;;;;;;;;;5071679;28;20515;-74
2022/01/14 07:34:31;;;;;;;22.60;10.95;;;;;;;;;;5071806;28;20056;-73
2022/01/14 07:37:36;;;;;;;1999.90;227.50;;;;;;;;;;5086191;28;20054;-73
2022/01/14 07:40:40;;;;;;;35.53;13.57;;;;;;;;;;5092977;28;20051;-73
2022/01/14 07:43:48;;;;;;;36.40;13.65;;;;;;;;;;5092789;28;20050;-72
2022/01/14 07:46:52;;;;;;;34.97;11.25;;;;;;;;;;5092386;28;20066;-76
2022/01/14 07:49:57;;;;;;;31.25;8.80;;;;;;;;;;5080226;28;20537;-76
2022/01/14 07:53:01;;;;;;;31.70;9.27;;;;;;;;;;5080262;28;20053;-71
2022/01/14 07:56:07;;;;;;;35.75;10.20;;;;;;;;;;5092785;28;20039;-71
2022/01/14 07:59:12;;;;;;;23.88;9.88;;;;;;;;;;5080420;28;20066;-71
2022/01/14 08:02:18;;;;;;;30.63;10.35;;;;;;;;;;5080116;28;20726;-71
2022/01/14 08:05:23;;;;;;;26.02;10.55;;;;;;;;;;5092732;28;20506;-71
2022/01/14 08:08:31;;;;;;;37.80;10.00;;;;;;;;;;5091513;28;20522;-70
2022/01/14 08:11:36;;;;;;;28.35;9.73;;;;;;;;;;5091562;28;20509;-70
2022/01/14 08:14:41;;;;;;;26.73;9.73;;;;;;;;;;5068055;28;20059;-71
2022/01/14 08:17:44;;;;;;;22.80;9.88;;;;;;;;;;5079702;28;20391;-71
2022/01/14 08:20:49;;;;;;;30.17;11.32;;;;;;;;;;5091987;28;20040;-72
2022/01/14 08:23:53;;;;;;;27.85;10.80;;;;;;;;;;5068083;28;20039;-71
2022/01/14 08:26:58;;;;;;;25.92;9.95;;;;;;;;;;5079567;28;20051;-71
2022/01/14 08:30:03;;;;;;;32.45;8.90;;;;;;;;;;5079784;28;20047;-73
2022/01/14 08:33:08;;;;;;;18.50;7.68;;;;;;;;;;5079573;28;20049;-73
2022/01/14 08:36:12;;;;;;;14.50;6.35;;;;;;;;;;5092006;28;20036;-73
2022/01/14 08:39:18;;;;;;;19.05;6.22;;;;;;;;;;5091366;28;20048;-70
2022/01/14 08:42:22;;;;;;;17.70;6.82;;;;;;;;;;5091025;28;20040;-69
2022/01/14 08:45:27;;;;;;;24.15;8.32;;;;;;;;;;5091494;28;20051;-72
2022/01/14 08:48:31;;;;;;;18.05;8.23;;;;;;;;;;5079030;28;20522;-72
2022/01/14 08:51:36;;;;;;;35.25;10.85;;;;;;;;;;5067433;28;20036;-72
2022/01/14 08:54:41;;;;;;;25.67;9.10;;;;;;;;;;5091460;28;20442;-73
2022/01/14 08:57:46;;;;;;;19.77;8.75;;;;;;;;;;5091853;28;20388;-74
2022/01/14 09:00:51;;;;;;;27.85;9.50;;;;;;;;;;5079287;28;20380;-73
2022/01/14 09:03:55;;;;;;;21.67;9.82;;;;;;;;;;5078965;28;20043;-74
2022/01/14 09:06:59;;;;;;;12.25;5.90;;;;;;;;;;5067319;28;20046;-73
2022/01/14 09:10:05;;;;;;;12.13;5.38;;;;;;;;;;5078939;28;20036;-73
2022/01/14 09:13:09;;;;;;;10.93;4.85;;;;;;;;;;5067070;28;20036;-74
2022/01/14 09:16:13;;;;;;;15.68;7.18;;;;;;;;;;5091332;28;20044;-72
2022/01/14 09:19:20;;;;;;;21.92;6.88;;;;;;;;;;5078387;28;20028;-72
2022/01/14 09:22:28;;;;;;;19.55;6.88;;;;;;;;;;5091079;28;20495;-72
2022/01/14 09:25:32;;;;;;;15.35;6.45;;;;;;;;;;5067218;28;20110;-79
2022/01/14 09:28:36;;;;;;;13.05;5.55;;;;;;;;;;5067887;28;20039;-81
2022/01/14 09:31:41;;;;;;;9.80;4.35;;;;;;;;;;5055806;28;20051;-76
2022/01/14 09:34:45;;;;;;;12.55;4.43;;;;;;;;;;5066822;28;20048;-78
2022/01/14 09:37:50;;;;;;;11.98;3.92;;;;;;;;;;5078495;28;20044;-78
2022/01/14 09:40:56;;;;;;;6.85;3.58;;;;;;;;;;5078129;28;20518;-75
2022/01/14 09:44:01;;;;;;;8.27;3.83;;;;;;;;;;5055376;28;20479;-74
2022/01/14 09:47:06;;;;;;;6.22;3.42;;;;;;;;;;5078354;28;20040;-75
2022/01/14 09:50:10;;;;;;;11.63;3.70;;;;;;;;;;5078077;28;20487;-77
2022/01/14 09:53:15;;;;;;;7.78;3.90;;;;;;;;;;5079453;28;20396;-73
2022/01/14 09:56:21;;;;;;;9.25;3.80;;;;;;;;;;5082230;28;20052;-70
2022/01/14 09:59:25;;;;;;;5.88;3.20;;;;;;;;;;5094843;28;20480;-72
2022/01/14 10:02:34;;;;;;;6.32;3.28;;;;;;;;;;5070508;28;20036;-75
2022/01/14 10:05:42;;;;;;;7.90;3.20;;;;;;;;;;5070359;28;20032;-77
2022/01/14 10:08:46;;;;;;;9.50;3.40;;;;;;;;;;5081926;28;20032;-81
2022/01/14 10:12:05;;;;;;;7.70;3.25;;;;;;;;;;5070811;28;20048;-79
2022/01/14 10:15:10;;;;;;;7.10;3.75;;;;;;;;;;5081670;28;20056;-76
2022/01/14 10:18:16;;;;;;;7.85;3.20;;;;;;;;;;5081991;28;20040;-72
2022/01/14 10:21:20;;;;;;;11.35;4.88;;;;;;;;;;5094388;28;20385;-72
2022/01/14 10:24:27;;;;;;;8.85;3.45;;;;;;;;;;5094183;28;20043;-71
2022/01/14 10:27:33;;;;;;;15.63;5.07;;;;;;;;;;5093862;28;20040;-72
2022/01/14 10:30:38;;;;;;;17.48;4.20;;;;;;;;;;5081490;28;20043;-71
2022/01/14 10:33:42;;;;;;;14.35;5.10;;;;;;;;;;5094021;28;20644;-72
2022/01/14 10:36:47;;;;;;;11.07;4.80;;;;;;;;;;5081871;28;20052;-72
2022/01/14 10:39:52;;;;;;;12.10;4.07;;;;;;;;;;5093857;28;20391;-72
2022/01/14 10:43:00;;;;;;;8.10;3.92;;;;;;;;;;5093783;28;20044;-72
2022/01/14 10:46:09;;;;;;;11.18;4.13;;;;;;;;;;5094038;28;20044;-73
2022/01/14 10:49:22;;;;;;;13.13;4.25;;;;;;;;;;5081160;28;20506;-72
2022/01/14 10:52:27;;;;;;;9.55;3.25;;;;;;;;;;5069896;28;20399;-71
2022/01/14 10:55:33;;;;;;;15.60;4.45;;;;;;;;;;5093417;28;20044;-70
2022/01/14 10:58:39;;;;;;;10.07;4.05;;;;;;;;;;5081266;28;20036;-70
2022/01/14 11:01:43;;;;;;;6.30;3.70;;;;;;;;;;5093784;28;20637;-70
2022/01/14 11:05:06;;;;;;;10.68;3.72;;;;;;;;;;5093691;28;20032;-73
2022/01/14 11:08:11;;;;;;;9.65;3.78;;;;;;;;;;5069520;28;20640;-74
2022/01/14 11:11:15;;;;;;;7.90;3.30;;;;;;;;;;5081208;28;20035;-71
2022/01/14 11:14:20;;;;;;;7.22;3.78;;;;;;;;;;5093392;28;20052;-72
2022/01/14 11:17:24;;;;;;;12.82;4.57;;;;;;;;;;5093298;28;20036;-72
2022/01/14 11:24:06;;;;;;;10.63;4.47;;;;;;;;;;5063629;28;20410;-73
2022/01/14 11:27:12;;;;;;;12.85;3.65;;;;;;;;;;5092909;28;20063;-73
2022/01/14 11:30:16;;;;;;;7.70;3.45;;;;;;;;;;5080408;28;20032;-73
2022/01/14 11:33:37;;;;;;;14.45;4.38;;;;;;;;;;5080673;28;20039;-69
2022/01/14 11:37:08;;;;;;;6.35;3.25;;;;;;;;;;5068645;28;20043;-74
2022/01/14 11:40:15;;;;;;;7.22;3.70;;;;;;;;;;5092947;28;20052;-72
2022/01/14 11:43:37;;;;;;;10.35;4.10;;;;;;;;;;5080376;28;20040;-72
2022/01/14 11:46:43;;;;;;;8.82;3.53;;;;;;;;;;5080512;28;20047;-72
2022/01/14 11:49:48;;;;;;;7.82;3.90;;;;;;;;;;5080584;28;20040;-72
2022/01/14 11:52:54;;;;;;;9.38;4.30;;;;;;;;;;5080044;28;20044;-72
2022/01/14 11:55:58;;;;;;;13.82;4.18;;;;;;;;;;5092717;28;20051;-70
2022/01/14 11:59:18;;;;;;;8.20;3.47;;;;;;;;;;5080239;28;20036;-74
2022/01/14 12:02:27;;;;;;;10.73;3.40;;;;;;;;;;5092414;28;20044;-74
2022/01/14 12:05:31;;;;;;;11.68;3.95;;;;;;;;;;5066865;28;20032;-75
2022/01/14 12:08:42;;;;;;;7.43;3.95;;;;;;;;;;5091485;28;20038;-74
2022/01/14 12:12:06;;;;;;;5.10;2.75;;;;;;;;;;5079323;28;20028;-74
2022/01/14 12:15:31;;;;;;;9.88;3.25;;;;;;;;;;5067541;28;20048;-73
2022/01/14 12:18:54;;;;;;;3.38;2.35;;;;;;;;;;5056556;28;20040;-74
2022/01/14 12:21:58;;;;;;;10.95;3.40;;;;;;;;;;5091899;28;20483;-73
2022/01/14 12:25:03;;;;;;;10.48;2.92;;;;;;;;;;5079699;28;20040;-72
2022/01/14 12:28:17;;;;;;;11.48;2.85;;;;;;;;;;5079845;28;20507;-71
2022/01/14 12:31:21;;;;;;;6.38;3.00;;;;;;;;;;5079573;28;20032;-73
2022/01/14 12:34:26;;;;;;;9.05;2.95;;;;;;;;;;5079665;28;20056;-72
2022/01/14 12:37:31;;;;;;;12.23;2.70;;;;;;;;;;5091945;28;20040;-74
2022/01/14 12:40:37;;;;;;;7.13;3.17;;;;;;;;;;5079368;28;20514;-73
2022/01/14 12:43:49;;;;;;;9.65;2.85;;;;;;;;;;5092015;28;20483;-73
2022/01/14 12:46:54;;;;;;;;;;;;;;;;;;5092417;28;20067;-73
2022/01/14 12:50:01;;;;;;;7.95;3.45;;;;;;;;;;5092069;28;19915;-73
2022/01/14 12:53:06;;;;;;;12.68;5.00;;;;;;;;;;5079548;28;20487;-73
2022/01/14 12:56:15;;;;;;;7.57;3.78;;;;;;;;;;5091820;28;20525;-73
2022/01/14 12:59:19;;;;;;;10.50;3.97;;;;;;;;;;5091579;28;20024;-73
2022/01/14 13:02:25;;;;;;;6.47;3.35;;;;;;;;;;5091861;28;20113;-73
2022/01/14 13:05:30;;;;;;;4.70;2.15;;;;;;;;;;5091806;28;20356;-74
2022/01/14 13:08:34;;;;;;;4.35;2.45;;;;;;;;;;5091711;28;20040;-73
2022/01/14 13:11:51;;;;;;;7.50;2.58;;;;;;;;;;5079195;28;20044;-74
2022/01/14 13:15:00;;;;;;;9.60;2.70;;;;;;;;;;5091406;28;20052;-73
2022/01/14 13:18:09;;;;;;;12.35;2.90;;;;;;;;;;5091740;28;20028;-73
2022/01/14 13:21:14;;;;;;;8.63;3.28;;;;;;;;;;5079460;28;20032;-73
2022/01/14 13:24:22;;;;;;;8.95;3.20;;;;;;;;;;5080116;28;20483;-71
2022/01/14 13:27:29;;;;;;;13.77;4.10;;;;;;;;;;5067658;28;20036;-73
2022/01/14 13:30:37;;;;;;;9.25;3.05;;;;;;;;;;5091457;28;20499;-72
2022/01/14 13:33:42;;;;;;;8.98;3.22;;;;;;;;;;5067345;28;20032;-73
2022/01/14 13:36:46;;;;;;;6.35;3.70;;;;;;;;;;5078942;28;20039;-73
2022/01/14 13:40:03;;;;;;;11.88;6.97;;;;;;;;;;5091484;28;20040;-72
2022/01/14 13:43:07;;;;;;;7.05;4.20;;;;;;;;;;5078781;28;20372;-71
2022/01/14 13:46:18;;;;;;;8.57;3.25;;;;;;;;;;5091558;28;20028;-70
2022/01/14 13:49:23;;;;;;;8.57;3.80;;;;;;;;;;5078686;28;20039;-72
2022/01/14 13:52:31;;;;;;;8.45;3.28;;;;;;;;;;5078680;28;20044;-72
2022/01/14 13:55:35;;;;;;;6.15;2.88;;;;;;;;;;5090899;28;20052;-70
2022/01/14 13:58:43;;;;;;;6.25;3.47;;;;;;;;;;5091339;28;20032;-71
2022/01/14 14:01:53;;;;;;;8.75;3.78;;;;;;;;;;5079097;28;20052;-70
2022/01/14 14:04:58;;;;;;;23.15;4.95;;;;;;;;;;5091584;28;20040;-70
2022/01/14 14:08:11;;;;;;;22.67;5.00;;;;;;;;;;5091446;28;20036;-71
2022/01/14 14:18:04;;;;;;;10.27;4.28;;;;;;;;;;5091371;28;20032;-72
2022/01/14 14:21:15;;;;;;;13.70;4.70;;;;;;;;;;5078944;28;20392;-71
2022/01/14 14:24:19;;;;;;;9.05;4.40;;;;;;;;;;5091370;28;20040;-72
2022/01/14 14:27:24;;;;;;;18.98;5.40;;;;;;;;;;5091287;28;20051;-71
2022/01/14 14:30:36;;;;;;;13.23;5.30;;;;;;;;;;5091052;28;20502;-68
2022/01/14 14:33:40;;;;;;;11.05;4.95;;;;;;;;;;5091266;28;20032;-74
2022/01/14 14:36:44;;;;;;;16.55;5.97;;;;;;;;;;5091247;28;20048;-75
2022/01/14 14:39:49;;;;;;;23.95;5.95;;;;;;;;;;5093048;28;20055;-71
2022/01/14 14:42:54;;;;;;;34.58;6.40;;;;;;;;;;5094356;28;20423;-74
2022/01/14 14:45:58;;;;;;;23.55;6.78;;;;;;;;;;5070236;28;20383;-71
2022/01/14 14:49:03;;;;;;;12.13;5.80;;;;;;;;;;5081182;28;20025;-73
2022/01/14 14:52:08;;;;;;;15.13;5.40;;;;;;;;;;5094125;28;20048;-72
2022/01/14 14:55:12;;;;;;;17.40;5.70;;;;;;;;;;5081108;28;20052;-71
2022/01/14 14:58:16;;;;;;;22.33;7.72;;;;;;;;;;5093527;28;20039;-71
2022/01/14 15:01:21;;;;;;;13.20;5.82;;;;;;;;;;5058146;28;20044;-71
2022/01/14 15:04:25;;;;;;;13.73;5.80;;;;;;;;;;5093911;28;20032;-71
2022/01/14 15:07:29;;;;;;;20.95;7.38;;;;;;;;;;5081426;28;20506;-72
2022/01/14 15:10:34;;;;;;;19.90;7.68;;;;;;;;;;5069495;28;20036;-71
2022/01/14 15:13:40;;;;;;;20.40;8.43;;;;;;;;;;5081008;28;20395;-71
2022/01/14 15:19:52;;;;;;;14.07;8.25;;;;;;;;;;5093441;28;20039;-72
2022/01/14 15:22:57;;;;;;;22.38;7.78;;;;;;;;;;5093756;28;20040;-71
2022/01/14 15:26:01;;;;;;;13.32;6.85;;;;;;;;;;5093491;28;20036;-71
2022/01/14 15:29:05;;;;;;;17.58;7.38;;;;;;;;;;5068872;28;20476;-71
2022/01/14 15:32:10;;;;;;;21.15;9.25;;;;;;;;;;5093159;28;20032;-69
2022/01/14 15:35:14;;;;;;;23.42;10.75;;;;;;;;;;5080316;28;20056;-70
2022/01/14 15:38:18;;;;;;;28.15;9.65;;;;;;;;;;5092530;28;20546;-69
2022/01/14 15:41:23;;;;;;;30.17;9.02;;;;;;;;;;5068669;28;20036;-70
2022/01/14 15:44:27;;;;;;;27.33;9.05;;;;;;;;;;5092866;28;20369;-68
2022/01/14 15:47:33;;;;;;;19.85;10.05;;;;;;;;;;5079846;28;20032;-71
2022/01/14 15:50:38;;;;;;;24.70;13.05;;;;;;;;;;5092054;28;20048;-69
2022/01/14 15:53:42;;;;;;;22.35;13.20;;;;;;;;;;5080116;28;20405;-70
2022/01/14 15:56:47;;;;;;;35.63;15.80;;;;;;;;;;5080056;28;20055;-69
2022/01/14 15:59:51;;;;;;;38.20;15.52;;;;;;;;;;5079505;28;20039;-71
2022/01/14 16:02:56;;;;;;;49.33;17.23;;;;;;;;;;5092499;28;20047;-72
2022/01/14 16:06:00;;;;;;;47.58;18.30;;;;;;;;;;5091462;28;20047;-71
2022/01/14 16:09:05;;;;;;;38.58;18.65;;;;;;;;;;5077458;28;20071;-71
2022/01/14 16:12:09;;;;;;;47.92;19.45;;;;;;;;;;5089863;28;20043;-71
2022/01/14 16:15:13;;;;;;;39.40;21.67;;;;;;;;;;5079500;28;20696;-72
2022/01/14 16:18:18;;;;;;;37.55;21.65;;;;;;;;;;5092027;28;20047;-71
2022/01/14 16:21:22;;;;;;;59.85;22.80;;;;;;;;;;5091187;28;20408;-71
2022/01/14 16:24:26;;;;;;;64.88;22.95;;;;;;;;;;5091748;28;20047;-71
2022/01/14 16:27:30;;;;;;;63.78;23.63;;;;;;;;;;5091204;28;20043;-69
2022/01/14 16:30:35;;;;;;;75.90;26.90;;;;;;;;;;5091812;28;20050;-70
2022/01/14 16:33:39;;;;;;;51.78;24.23;;;;;;;;;;5091898;28;20090;-70
2022/01/14 16:36:43;;;;;;;54.45;24.00;;;;;;;;;;5090997;28;20510;-70
2022/01/14 16:39:48;;;;;;;46.55;22.95;;;;;;;;;;5091166;28;20062;-69
2022/01/14 16:42:54;;;;;;;62.10;24.10;;;;;;;;;;5091566;28;20359;-69
2022/01/14 16:45:59;;;;;;;65.97;24.75;;;;;;;;;;5078806;28;20039;-69
2022/01/14 16:49:03;;;;;;;84.07;23.77;;;;;;;;;;5078871;28;20403;-71
2022/01/14 16:52:09;;;;;;;63.28;23.65;;;;;;;;;;5078884;28;20051;-70
2022/01/14 16:55:13;;;;;;;42.45;24.20;;;;;;;;;;5091031;28;20084;-71
2022/01/14 16:58:18;;;;;;;50.90;26.45;;;;;;;;;;5078892;28;20078;-72
2022/01/14 17:01:22;;;;;;;48.10;26.92;;;;;;;;;;5091411;28;20042;-73
2022/01/14 17:04:26;;;;;;;54.67;27.63;;;;;;;;;;5091205;28;20039;-72
2022/01/14 17:07:31;;;;;;;69.70;27.85;;;;;;;;;;5078892;28;20072;-71
2022/01/14 17:10:35;;;;;;;68.53;24.85;;;;;;;;;;5091389;28;20051;-73
2022/01/14 17:13:39;;;;;;;73.82;25.35;;;;;;;;;;5091348;28;20055;-71
2022/01/14 17:16:44;;;;;;;76.05;26.20;;;;;;;;;;5078705;28;20051;-72
2022/01/14 17:19:48;;;;;;;70.88;28.30;;;;;;;;;;5078183;28;20055;-71
2022/01/14 17:22:53;;;;;;;82.05;28.55;;;;;;;;;;5078369;28;20055;-71
2022/01/14 17:26:00;;;;;;;100.68;29.75;;;;;;;;;;5089696;28;20039;-69
2022/01/14 17:29:04;;;;;;;75.60;27.60;;;;;;;;;;5090612;28;20051;-71
2022/01/14 17:32:09;;;;;;;71.80;28.10;;;;;;;;;;5076284;28;20046;-72
2022/01/14 17:35:13;;;;;;;95.05;29.45;;;;;;;;;;5077547;28;20222;-72
2022/01/14 17:38:17;;;;;;;90.60;30.33;;;;;;;;;;5089403;28;20487;-72
2022/01/14 17:41:22;;;;;;;77.57;33.40;;;;;;;;;;5089458;28;20391;-73
2022/01/14 17:44:30;;;;;;;76.75;27.85;;;;;;;;;;5078151;28;20498;-73
2022/01/14 17:47:34;;;;;;;56.53;27.55;;;;;;;;;;5077921;28;20047;-70
2022/01/14 17:50:39;;;;;;;58.92;27.77;;;;;;;;;;5090552;28;20046;-71
2022/01/14 17:53:43;;;;;;;67.70;30.60;;;;;;;;;;5090367;28;20045;-70
2022/01/14 17:56:48;;;;;;;76.07;31.02;;;;;;;;;;5090573;28;20055;-70
2022/01/14 17:59:53;;;;;;;76.15;30.95;;;;;;;;;;5090539;28;20048;-69
2022/01/14 18:02:57;;;;;;;55.22;29.80;;;;;;;;;;5089737;28;20047;-70
2022/01/14 18:06:01;;;;;;;64.80;33.25;;;;;;;;;;5090539;28;20035;-70
2022/01/14 18:09:06;;;;;;;116.13;51.05;;;;;;;;;;5077933;28;20055;-69
2022/01/14 18:12:34;;;;;;;100.93;42.20;;;;;;;;;;5090279;28;20399;-72
2022/01/14 18:15:41;;;;;;;92.70;41.30;;;;;;;;;;5069059;28;20051;-73
2022/01/14 18:18:45;;;;;;;103.72;41.28;;;;;;;;;;5093795;28;20106;-72
2022/01/14 18:21:49;;;;;;;88.35;35.50;;;;;;;;;;5094110;28;20047;-72
2022/01/14 18:24:54;;;;;;;75.40;34.17;;;;;;;;;;5093957;28;20047;-73
2022/01/14 18:27:58;;;;;;;100.97;37.05;;;;;;;;;;5093993;28;20047;-72
2022/01/14 18:31:04;;;;;;;91.28;42.47;;;;;;;;;;5093476;28;20051;-72
2022/01/14 18:34:09;;;;;;;95.68;43.85;;;;;;;;;;5093894;28;20043;-74
2022/01/14 18:37:13;;;;;;;91.40;48.28;;;;;;;;;;5093840;28;20043;-72
2022/01/14 18:40:18;;;;;;;117.45;68.63;;;;;;;;;;5093977;28;20058;-72
2022/01/14 18:43:23;;;;;;;115.18;68.65;;;;;;;;;;5081185;28;20043;-71
2022/01/14 18:46:28;;;;;;;129.95;64.05;;;;;;;;;;5080161;28;20042;-71
2022/01/14 18:49:32;;;;;;;133.90;56.10;;;;;;;;;;5081132;28;20051;-71
2022/01/14 18:52:36;;;;;;;152.40;60.58;;;;;;;;;;5081357;28;20043;-71